createdAt,value
2019-03-20T00:00:25.304Z,20.13
2019-03-20T00:02:53.955Z,18.33
2019-03-20T00:05:22.618Z,21.13
2019-03-20T00:07:51.241Z,24.27
2019-03-20T00:10:19.917Z,16.43
2019-03-20T00:12:48.543Z,14.50
2019-03-20T00:15:17.188Z,21.97
2019-03-20T00:17:45.772Z,24.37
2019-03-20T00:20:15.120Z,21.40
2019-03-20T00:22:43.752Z,19.73
2019-03-20T00:25:13.385Z,16.60
2019-03-20T00:27:42.085Z,16.67
2019-03-20T00:30:19.408Z,18.83
2019-03-20T00:32:48.068Z,20.77
2019-03-20T00:35:16.745Z,20.77
2019-03-20T00:37:45.305Z,15.50
2019-03-20T00:40:17.820Z,15.80
2019-03-20T00:42:46.656Z,12.10
2019-03-20T00:45:19.087Z,18.57
2019-03-20T00:47:47.684Z,15.17
2019-03-20T00:50:20.017Z,15.80
2019-03-20T00:52:48.667Z,18.20
2019-03-20T00:55:18.071Z,19.20
2019-03-20T00:57:47.392Z,15.80
2019-03-20T01:00:23.835Z,17.93
2019-03-20T01:02:52.460Z,20.23
2019-03-20T01:05:23.887Z,13.70
2019-03-20T01:07:52.550Z,12.80
2019-03-20T01:10:22.353Z,15.03
2019-03-20T01:12:51.383Z,16.60
2019-03-20T01:15:20.015Z,13.20
2019-03-20T01:17:48.686Z,20.53
2019-03-20T01:20:27.465Z,15.70
2019-03-20T01:22:56.144Z,12.33
2019-03-20T01:25:24.770Z,17.93
2019-03-20T01:27:53.386Z,20.13
2019-03-20T01:30:35.977Z,19.70
2019-03-20T01:33:07.355Z,21.47
2019-03-20T01:35:36.012Z,16.17
2019-03-20T01:38:05.581Z,17.10
2019-03-20T01:40:34.215Z,15.70
2019-03-20T01:43:02.949Z,20.83
2019-03-20T01:45:31.581Z,24.37
2019-03-20T01:48:00.279Z,22.80
2019-03-20T01:50:28.927Z,22.17
2019-03-20T01:52:57.520Z,18.00
2019-03-20T01:55:26.088Z,20.90
2019-03-20T01:57:54.852Z,17.77
2019-03-20T02:00:23.543Z,14.80
2019-03-20T02:02:52.141Z,17.63
2019-03-20T02:05:20.764Z,15.90
2019-03-20T02:07:49.366Z,15.90
2019-03-20T02:10:18.460Z,17.77
2019-03-20T02:12:47.115Z,19.40
2019-03-20T02:15:17.326Z,18.93
2019-03-20T02:17:45.987Z,24.17
2019-03-20T02:20:16.495Z,14.87
2019-03-20T02:22:45.210Z,15.93
2019-03-20T02:25:14.314Z,23.33
2019-03-20T02:27:42.950Z,18.67
2019-03-20T02:30:22.327Z,14.83
2019-03-20T02:32:50.923Z,18.20
2019-03-20T02:35:19.504Z,19.53
2019-03-20T02:37:56.512Z,14.63
2019-03-20T02:44:06.162Z,19.33
2019-03-20T02:46:34.807Z,17.47
2019-03-20T02:49:03.381Z,17.50
2019-03-20T02:51:31.978Z,20.07
2019-03-20T02:54:00.563Z,17.33
2019-03-20T02:56:29.120Z,16.60
2019-03-20T02:58:57.709Z,16.17
2019-03-20T03:01:26.344Z,13.20
2019-03-20T03:03:54.931Z,17.33
2019-03-20T03:06:23.500Z,20.83
2019-03-20T03:08:52.178Z,20.30
2019-03-20T03:11:20.978Z,15.13
2019-03-20T03:13:49.645Z,17.17
2019-03-20T03:16:18.237Z,20.67
2019-03-20T03:18:48.361Z,19.27
2019-03-20T03:21:17.002Z,17.03
2019-03-20T03:23:45.575Z,18.80
2019-03-20T03:26:14.140Z,19.10
2019-03-20T03:28:42.736Z,22.33
2019-03-20T03:31:11.310Z,14.50
2019-03-20T03:33:39.937Z,13.03
2019-03-20T03:36:20.650Z,16.10
2019-03-20T03:38:38.843Z,23.30
2019-03-20T03:41:07.379Z,16.90
2019-03-20T03:43:36.008Z,18.57
2019-03-20T03:46:04.703Z,17.90
2019-03-20T03:48:33.279Z,14.07
2019-03-20T03:54:31.276Z,13.57
2019-03-20T03:56:59.961Z,18.47
2019-03-20T03:59:28.589Z,18.40
2019-03-20T04:01:57.155Z,13.67
2019-03-20T04:04:31.657Z,16.70
2019-03-20T04:07:00.221Z,13.07
2019-03-20T04:09:28.838Z,16.73
2019-03-20T04:11:57.495Z,17.70
2019-03-20T04:14:26.029Z,19.05
2019-03-20T04:16:54.758Z,17.03
2019-03-20T04:19:23.442Z,14.60
2019-03-20T04:21:52.059Z,17.10
2019-03-20T04:24:20.602Z,17.50
2019-03-20T04:26:49.362Z,20.83
2019-03-20T04:29:17.939Z,19.67
2019-03-20T04:31:46.531Z,21.80
2019-03-20T04:34:15.276Z,20.87
2019-03-20T04:36:48.026Z,21.20
2019-03-20T04:39:14.189Z,19.48
2019-03-20T04:41:42.740Z,19.40
2019-03-20T04:44:11.406Z,19.70
2019-03-20T04:46:40.131Z,20.55
2019-03-20T04:49:08.745Z,20.35
2019-03-20T04:51:37.313Z,20.23
2019-03-20T04:54:05.980Z,19.60
2019-03-20T04:56:35.474Z,13.72
2019-03-20T04:59:04.120Z,12.37
2019-03-20T05:01:32.756Z,15.45
2019-03-20T05:04:01.365Z,21.33
2019-03-20T05:06:29.942Z,21.25
2019-03-20T05:08:58.572Z,20.80
2019-03-20T05:11:27.137Z,23.77
2019-03-20T05:13:55.817Z,13.00
2019-03-20T05:16:24.399Z,19.77
2019-03-20T05:18:52.994Z,15.85
2019-03-20T05:21:21.571Z,20.52
2019-03-20T05:23:50.276Z,19.65
2019-03-20T05:26:18.837Z,15.98
2019-03-20T05:28:47.524Z,22.87
2019-03-20T05:31:16.090Z,21.15
2019-03-20T05:33:44.737Z,17.98
2019-03-20T05:36:13.289Z,13.00
2019-03-20T05:38:41.886Z,13.60
2019-03-20T05:41:10.477Z,14.07
2019-03-20T05:43:39.074Z,18.53
2019-03-20T05:46:07.645Z,17.27
2019-03-20T05:48:36.260Z,17.60
2019-03-20T05:51:04.888Z,19.13
2019-03-20T05:53:33.501Z,23.07
2019-03-20T05:56:02.087Z,27.03
2019-03-20T05:58:30.671Z,17.17
2019-03-20T06:00:59.309Z,13.88
2019-03-20T06:03:27.845Z,13.80
2019-03-20T06:05:56.445Z,18.67
2019-03-20T06:08:25.032Z,16.73
2019-03-20T06:10:53.653Z,20.77
2019-03-20T06:13:22.294Z,17.90
2019-03-20T06:15:50.885Z,18.67
2019-03-20T06:18:19.557Z,18.80
2019-03-20T06:20:48.133Z,14.60
2019-03-20T06:23:16.720Z,22.50
2019-03-20T06:25:46.501Z,15.40
2019-03-20T06:28:15.081Z,37.73
2019-03-20T06:30:43.702Z,25.70
2019-03-20T06:33:12.233Z,16.30
2019-03-20T06:35:40.818Z,15.60
2019-03-20T06:38:09.405Z,15.93
2019-03-20T06:40:37.992Z,21.20
2019-03-20T06:43:06.569Z,15.20
2019-03-20T06:45:35.325Z,18.37
2019-03-20T06:48:04.021Z,20.33
2019-03-20T06:50:32.615Z,16.27
2019-03-20T06:53:01.346Z,15.20
2019-03-20T06:55:29.932Z,15.67
2019-03-20T06:57:58.493Z,14.93
2019-03-20T07:00:42.170Z,18.40
2019-03-20T07:03:22.776Z,15.57
2019-03-20T07:06:19.689Z,15.47
2019-03-20T07:09:15.807Z,18.20
2019-03-20T07:14:51.509Z,19.70
2019-03-20T07:17:42.568Z,14.53
2019-03-20T07:20:11.707Z,15.63
2019-03-20T07:22:47.660Z,16.73
2019-03-20T07:25:21.802Z,15.03
2019-03-20T07:27:49.063Z,18.47
2019-03-20T07:30:26.512Z,18.20
2019-03-20T07:36:37.602Z,14.03
2019-03-20T07:39:24.836Z,15.47
2019-03-20T07:41:46.756Z,11.47
2019-03-20T07:44:17.674Z,13.73
2019-03-20T07:46:53.446Z,14.63
2019-03-20T07:49:28.367Z,12.37
2019-03-20T07:52:05.584Z,17.57
2019-03-20T07:54:36.176Z,13.83
2019-03-20T07:57:09.718Z,17.60
2019-03-20T07:59:40.162Z,13.87
2019-03-20T08:02:09.008Z,12.30
2019-03-20T08:04:41.239Z,13.63
2019-03-20T08:07:21.438Z,13.43
2019-03-20T08:10:12.559Z,13.23
2019-03-20T08:12:41.550Z,14.37
2019-03-20T08:15:15.270Z,13.47
2019-03-20T08:17:44.033Z,13.17
2019-03-20T08:20:37.685Z,15.70
2019-03-20T08:23:14.833Z,8.27
2019-03-20T08:25:41.143Z,9.03
2019-03-20T08:28:09.785Z,12.47
2019-03-20T08:30:38.559Z,12.53
2019-03-20T08:33:07.229Z,11.03
2019-03-20T08:35:35.944Z,13.60
2019-03-20T08:38:04.680Z,7.30
2019-03-20T08:40:33.549Z,12.23
2019-03-20T08:43:14.303Z,7.27
2019-03-20T08:45:42.985Z,13.07
2019-03-20T08:48:11.749Z,8.77
2019-03-20T08:50:40.441Z,8.43
2019-03-20T08:53:09.094Z,7.73
2019-03-20T08:55:37.792Z,11.40
2019-03-20T09:00:53.019Z,8.03
2019-03-20T09:03:21.587Z,9.20
2019-03-20T09:05:50.221Z,9.17
2019-03-20T09:08:28.716Z,6.17
2019-03-20T09:10:49.104Z,4.87
2019-03-20T09:13:17.739Z,5.13
2019-03-20T09:15:46.260Z,5.00
2019-03-20T09:18:14.893Z,9.00
2019-03-20T09:20:43.438Z,6.83
2019-03-20T09:23:12.061Z,9.67
2019-03-20T09:25:40.605Z,12.90
2019-03-20T09:28:09.195Z,8.77
2019-03-20T09:30:37.777Z,7.70
2019-03-20T09:33:06.437Z,8.70
2019-03-20T09:35:34.989Z,8.47
2019-03-20T09:38:03.673Z,5.87
2019-03-20T09:40:32.285Z,9.47
2019-03-20T09:43:00.841Z,4.10
2019-03-20T09:45:29.403Z,13.77
2019-03-20T09:47:57.995Z,5.70
2019-03-20T09:50:29.872Z,9.50
2019-03-20T09:52:58.466Z,8.73
2019-03-20T09:55:27.013Z,7.27
2019-03-20T09:57:55.593Z,6.13
2019-03-20T10:00:28.536Z,5.90
2019-03-20T10:02:57.193Z,8.17
2019-03-20T10:05:25.830Z,4.00
2019-03-20T10:07:54.496Z,3.73
2019-03-20T10:10:25.222Z,4.77
2019-03-20T10:12:53.852Z,3.20
2019-03-20T10:15:29.374Z,7.77
2019-03-20T10:17:58.120Z,10.93
2019-03-20T10:20:26.808Z,13.73
2019-03-20T10:22:55.553Z,6.40
2019-03-20T10:25:24.310Z,5.43
2019-03-20T10:27:52.941Z,3.57
2019-03-20T10:30:28.885Z,6.07
2019-03-20T10:32:57.594Z,8.73
2019-03-20T10:35:26.285Z,6.37
2019-03-20T10:37:55.072Z,4.90
2019-03-20T10:40:24.798Z,5.83
2019-03-20T10:42:53.489Z,6.23
2019-03-20T10:45:22.225Z,7.03
2019-03-20T10:47:52.943Z,8.83
2019-03-20T10:50:26.230Z,10.43
2019-03-20T10:52:54.841Z,6.53
2019-03-20T10:55:23.467Z,5.57
2019-03-20T10:57:52.316Z,7.73
2019-03-20T11:00:25.033Z,5.47
2019-03-20T11:02:53.813Z,6.00
2019-03-20T11:05:22.737Z,3.83
2019-03-20T11:07:51.428Z,9.27
2019-03-20T11:10:24.725Z,6.23
2019-03-20T11:12:53.589Z,4.60
2019-03-20T11:15:23.120Z,3.80
2019-03-20T11:17:51.891Z,4.37
2019-03-20T11:20:22.005Z,6.80
2019-03-20T11:22:50.961Z,8.80
2019-03-20T11:25:27.674Z,6.30
2019-03-20T11:27:56.615Z,6.20
2019-03-20T11:30:32.569Z,4.43
2019-03-20T11:33:01.172Z,8.07
2019-03-20T11:35:29.872Z,7.23
2019-03-20T11:38:01.135Z,3.70
2019-03-20T11:40:35.161Z,8.50
2019-03-20T11:43:04.334Z,6.77
2019-03-20T11:45:33.257Z,4.23
2019-03-20T11:48:02.022Z,5.27
2019-03-20T11:50:38.862Z,3.53
2019-03-20T11:53:08.703Z,5.00
2019-03-20T11:55:37.954Z,7.00
2019-03-20T11:58:07.551Z,4.73
2019-03-20T12:00:36.407Z,5.20
2019-03-20T12:03:05.554Z,7.60
2019-03-20T12:05:37.641Z,8.07
2019-03-20T12:08:06.404Z,6.23
2019-03-20T12:10:35.336Z,5.60
2019-03-20T12:13:04.006Z,4.20
2019-03-20T12:15:32.775Z,5.33
2019-03-20T12:18:04.277Z,4.40
2019-03-20T12:20:33.117Z,4.30
2019-03-20T12:23:01.705Z,7.27
2019-03-20T12:25:38.102Z,9.07
2019-03-20T12:28:06.862Z,6.70
2019-03-20T12:30:39.632Z,3.97
2019-03-20T12:33:08.357Z,7.03
2019-03-20T12:35:42.520Z,8.93
2019-03-20T12:38:14.910Z,5.53
2019-03-20T12:40:42.667Z,6.43
2019-03-20T12:43:11.345Z,8.93
2019-03-20T12:45:40.459Z,8.50
2019-03-20T12:48:11.002Z,5.90
2019-03-20T12:50:39.693Z,7.23
2019-03-20T12:53:10.525Z,5.17
2019-03-20T12:55:39.157Z,8.87
2019-03-20T12:58:07.753Z,6.67
2019-03-20T13:00:36.489Z,5.40
2019-03-20T13:03:05.488Z,6.40
2019-03-20T13:05:34.084Z,6.07
2019-03-20T13:08:06.026Z,5.83
2019-03-20T13:10:32.993Z,5.50
2019-03-20T13:13:01.719Z,8.13
2019-03-20T13:15:30.453Z,4.27
2019-03-20T13:17:59.288Z,5.57
2019-03-20T13:20:28.104Z,5.87
2019-03-20T13:23:05.929Z,9.53
2019-03-20T13:25:34.632Z,8.27
2019-03-20T13:28:03.397Z,5.67
2019-03-20T13:30:43.727Z,3.60
2019-03-20T13:33:12.492Z,10.80
2019-03-20T13:35:41.174Z,5.33
2019-03-20T13:38:09.809Z,7.07
2019-03-20T13:40:38.443Z,9.60
2019-03-20T13:43:07.202Z,5.37
2019-03-20T13:45:35.952Z,8.20
2019-03-20T13:48:04.878Z,8.73
2019-03-20T13:50:33.508Z,4.30
2019-03-20T13:53:02.290Z,4.17
2019-03-20T13:55:30.913Z,7.47
2019-03-20T13:57:59.741Z,4.60
2019-03-20T14:00:28.817Z,9.90
2019-03-20T14:02:57.582Z,4.13
2019-03-20T14:05:26.345Z,6.83
2019-03-20T14:07:55.125Z,11.20
2019-03-20T14:10:28.086Z,5.80
2019-03-20T14:12:56.789Z,11.40
2019-03-20T14:15:25.465Z,5.63
2019-03-20T14:17:54.263Z,8.50
2019-03-20T14:20:24.984Z,5.47
2019-03-20T14:22:53.830Z,5.57
2019-03-20T14:25:22.877Z,6.83
2019-03-20T14:27:52.547Z,4.80
2019-03-20T14:30:23.360Z,12.53
2019-03-20T14:32:52.084Z,12.97
2019-03-20T14:35:21.061Z,6.27
2019-03-20T14:37:50.007Z,4.00
2019-03-20T14:40:31.665Z,5.87
2019-03-20T14:42:54.820Z,5.23
2019-03-20T14:45:23.576Z,9.53
2019-03-20T14:47:52.325Z,8.93
2019-03-20T14:50:28.009Z,5.03
2019-03-20T14:52:56.778Z,6.17
2019-03-20T14:55:26.759Z,4.17
2019-03-20T14:57:56.977Z,8.37
2019-03-20T15:00:31.977Z,4.67
2019-03-20T15:03:01.137Z,5.50
2019-03-20T15:05:29.898Z,7.77
2019-03-20T15:07:58.671Z,8.07
2019-03-20T15:10:30.032Z,11.03
2019-03-20T15:12:58.712Z,11.93
2019-03-20T15:15:48.680Z,6.00
2019-03-20T15:18:17.317Z,8.57
2019-03-20T15:20:46.065Z,4.03
2019-03-20T15:23:14.761Z,5.57
2019-03-20T15:25:43.517Z,8.37
2019-03-20T15:28:12.238Z,7.97
2019-03-20T15:30:40.915Z,4.37
2019-03-20T15:33:09.532Z,6.77
2019-03-20T15:35:38.296Z,6.80
2019-03-20T15:38:07.056Z,10.67
2019-03-20T15:40:35.769Z,4.30
2019-03-20T15:43:04.531Z,5.50
2019-03-20T15:45:33.300Z,10.47
2019-03-20T15:48:01.997Z,6.40
2019-03-20T15:50:30.672Z,13.77
2019-03-20T15:52:59.377Z,11.10
2019-03-20T15:55:39.088Z,5.20
2019-03-20T15:58:07.787Z,9.70
2019-03-20T16:00:36.456Z,8.13
2019-03-20T16:03:23.035Z,7.47
2019-03-20T16:05:51.659Z,7.00
2019-03-20T16:08:20.707Z,8.70
2019-03-20T16:10:49.401Z,6.30
2019-03-20T16:13:18.094Z,8.10
2019-03-20T16:15:46.863Z,7.40
2019-03-20T16:18:15.496Z,9.20
2019-03-20T16:20:44.098Z,9.30
2019-03-20T16:23:12.828Z,7.00
2019-03-20T16:25:41.421Z,10.50
2019-03-20T16:28:10.058Z,13.03
2019-03-20T16:30:38.668Z,11.10
2019-03-20T16:33:07.304Z,8.60
2019-03-20T16:35:35.978Z,6.20
2019-03-20T16:38:06.940Z,5.80
2019-03-20T16:40:36.328Z,8.30
2019-03-20T16:43:05.625Z,10.57
2019-03-20T16:45:35.773Z,8.37
2019-03-20T16:48:06.153Z,8.50
2019-03-20T16:50:34.981Z,7.83
2019-03-20T16:53:03.744Z,5.53
2019-03-20T16:55:32.424Z,9.50
2019-03-20T16:58:01.212Z,8.63
2019-03-20T17:00:31.356Z,8.00
2019-03-20T17:03:00.205Z,9.27
2019-03-20T17:05:29.760Z,19.70
2019-03-20T17:07:58.570Z,39.03
2019-03-20T17:10:38.231Z,13.47
2019-03-20T17:13:07.001Z,32.77
2019-03-20T17:15:39.481Z,29.80
2019-03-20T17:18:08.962Z,45.67
2019-03-20T17:20:37.694Z,30.60
2019-03-20T17:23:07.773Z,29.90
2019-03-20T17:25:36.803Z,24.33
2019-03-20T17:28:06.560Z,25.40
2019-03-20T17:30:37.420Z,10.23
2019-03-20T17:33:07.180Z,11.00
2019-03-20T17:35:36.020Z,8.70
2019-03-20T17:38:05.276Z,9.90
2019-03-20T17:40:33.963Z,14.00
2019-03-20T17:43:02.725Z,9.70
2019-03-20T17:45:32.941Z,7.23
2019-03-20T17:48:01.790Z,5.97
2019-03-20T17:50:34.121Z,5.50
2019-03-20T17:53:02.882Z,20.63
2019-03-20T17:55:50.828Z,11.80
2019-03-20T17:58:19.522Z,11.73
2019-03-20T18:00:49.910Z,11.60
2019-03-20T18:03:18.560Z,25.63
2019-03-20T18:05:47.290Z,20.10
2019-03-20T18:08:15.912Z,11.63
2019-03-20T18:10:44.577Z,15.63
2019-03-20T18:13:13.279Z,21.40
2019-03-20T18:15:41.963Z,38.40
2019-03-20T18:18:10.672Z,21.03
2019-03-20T18:20:39.343Z,22.33
2019-03-20T18:23:08.437Z,11.30
2019-03-20T18:25:37.178Z,8.87
2019-03-20T18:28:05.945Z,25.27
2019-03-20T18:30:37.018Z,21.93
2019-03-20T18:33:05.870Z,21.67
2019-03-20T18:35:34.607Z,29.17
2019-03-20T18:38:03.577Z,26.03
2019-03-20T18:40:32.255Z,29.17
2019-03-20T18:43:00.894Z,27.33
2019-03-20T18:45:29.605Z,19.33
2019-03-20T18:47:58.265Z,15.70
2019-03-20T18:50:27.008Z,15.07
2019-03-20T18:52:55.625Z,16.30
2019-03-20T18:55:24.357Z,11.03
2019-03-20T18:57:53.065Z,12.53
2019-03-20T19:00:29.788Z,17.53
2019-03-20T19:03:16.291Z,20.03
2019-03-20T19:05:54.107Z,23.53
2019-03-20T19:08:22.701Z,17.43
2019-03-20T19:10:51.413Z,20.17
2019-03-20T19:13:19.997Z,11.37
2019-03-20T19:15:48.649Z,11.67
2019-03-20T19:18:17.213Z,16.63
2019-03-20T19:20:45.873Z,21.67
2019-03-20T19:23:14.665Z,13.63
2019-03-20T19:25:43.418Z,13.73
2019-03-20T19:28:12.114Z,13.17
2019-03-20T19:30:40.820Z,15.23
2019-03-20T19:33:09.446Z,13.13
2019-03-20T19:35:38.251Z,16.03
2019-03-20T19:38:06.875Z,10.93
2019-03-20T19:40:35.641Z,16.37
2019-03-20T19:43:04.557Z,18.73
2019-03-20T19:45:33.217Z,19.00
2019-03-20T19:48:01.868Z,20.07
2019-03-20T19:50:30.520Z,17.37
2019-03-20T19:52:59.190Z,22.17
2019-03-20T19:55:31.408Z,33.40
2019-03-20T19:58:00.076Z,25.77
2019-03-20T20:00:29.129Z,23.03
2019-03-20T20:02:59.326Z,13.37
2019-03-20T20:05:28.194Z,13.33
2019-03-20T20:07:56.989Z,14.03
2019-03-20T20:10:25.576Z,14.87
2019-03-20T20:12:54.150Z,12.43
2019-03-20T20:15:33.944Z,11.83
2019-03-20T20:18:02.704Z,8.53
2019-03-20T20:20:33.905Z,13.30
2019-03-20T20:23:04.381Z,10.03
2019-03-20T20:25:32.733Z,20.47
2019-03-20T20:28:01.482Z,14.40
2019-03-20T20:30:30.197Z,18.40
2019-03-20T20:32:58.905Z,24.37
2019-03-20T20:35:27.640Z,20.93
2019-03-20T20:37:56.202Z,23.03
2019-03-20T20:40:44.154Z,22.03
2019-03-20T20:43:12.810Z,20.53
2019-03-20T20:45:41.374Z,17.70
2019-03-20T20:48:10.034Z,15.90
2019-03-20T20:50:38.733Z,16.37
2019-03-20T20:53:08.851Z,17.23
2019-03-20T20:55:37.658Z,16.50
2019-03-20T20:58:06.438Z,22.57
2019-03-20T21:00:36.303Z,15.03
2019-03-20T21:03:04.906Z,13.07
2019-03-20T21:05:33.553Z,19.50
2019-03-20T21:08:02.152Z,17.60
2019-03-20T21:10:30.918Z,16.40
2019-03-20T21:12:59.630Z,17.00
2019-03-20T21:15:42.184Z,17.27
2019-03-20T21:18:16.602Z,14.90
2019-03-20T21:20:46.426Z,17.70
2019-03-20T21:23:40.490Z,18.10
2019-03-20T21:26:23.834Z,18.40
2019-03-20T21:29:12.043Z,16.30
2019-03-20T21:32:00.336Z,19.03
2019-03-20T21:34:51.598Z,18.27
2019-03-20T21:37:58.110Z,19.93
2019-03-20T21:40:26.698Z,18.10
2019-03-20T21:43:17.292Z,14.70
2019-03-20T21:46:13.266Z,14.13
2019-03-20T21:48:42.187Z,13.20
2019-03-20T21:51:14.812Z,14.60
2019-03-20T21:53:55.106Z,16.63
2019-03-20T21:56:35.750Z,15.87
2019-03-20T21:59:16.557Z,16.27
2019-03-20T22:02:13.575Z,13.80
2019-03-20T22:04:42.422Z,12.97
2019-03-20T22:07:12.076Z,17.97
2019-03-20T22:09:52.481Z,11.60
2019-03-20T22:12:36.229Z,17.63
2019-03-20T22:15:10.476Z,18.20
2019-03-20T22:18:15.282Z,14.70
2019-03-20T22:20:49.793Z,17.10
2019-03-20T22:23:36.442Z,16.30
2019-03-20T22:26:10.767Z,13.90
2019-03-20T22:29:11.328Z,13.13
2019-03-20T22:31:45.589Z,11.27
2019-03-20T22:34:26.586Z,14.73
2019-03-20T22:36:55.181Z,13.73
2019-03-20T22:39:54.301Z,13.23
2019-03-20T22:42:34.516Z,13.40
2019-03-20T22:45:11.866Z,14.10
2019-03-20T22:47:58.341Z,12.63
2019-03-20T22:50:46.594Z,17.20
2019-03-20T22:53:36.223Z,9.60
2019-03-20T22:56:10.561Z,13.20
2019-03-20T22:58:46.444Z,10.30
2019-03-20T23:01:20.869Z,7.90
2019-03-20T23:03:52.556Z,12.20
2019-03-20T23:06:21.125Z,8.50
2019-03-20T23:08:49.706Z,14.17
2019-03-20T23:11:18.431Z,13.33
2019-03-20T23:13:47.176Z,17.00
2019-03-20T23:16:18.877Z,12.27
2019-03-20T23:18:47.477Z,16.87
2019-03-20T23:21:16.113Z,10.83
2019-03-20T23:23:44.777Z,10.50
2019-03-20T23:26:13.348Z,12.23
2019-03-20T23:28:42.231Z,8.67
2019-03-20T23:31:10.793Z,12.20
2019-03-20T23:33:39.478Z,12.90
2019-03-20T23:36:08.133Z,10.93
2019-03-20T23:38:36.716Z,10.47
2019-03-20T23:41:05.747Z,10.37
2019-03-20T23:43:34.492Z,17.97
2019-03-20T23:46:03.894Z,12.33
2019-03-20T23:48:38.345Z,11.87
2019-03-20T23:51:29.496Z,12.67
2019-03-20T23:53:58.933Z,12.20
2019-03-20T23:56:30.741Z,16.93
2019-03-20T23:58:59.345Z,14.73
